sensor_id;sensor_type;location;lat;lon;timestamp;P1;durP1;ratioP1;P2;durP2;ratioP2
8665;SDS011;4370;48.916;8.380;2023-08-08T00:01:21;1.60;;;1.50;;
8665;SDS011;4370;48.916;8.380;2023-08-08T00:03:47;2.07;;;1.73;;
8665;SDS011;4370;48.916;8.380;2023-08-08T00:06:13;1.83;;;1.40;;
8665;SDS011;4370;48.916;8.380;2023-08-08T00:08:39;1.70;;;1.60;;
8665;SDS011;4370;48.916;8.380;2023-08-08T00:11:06;1.60;;;1.50;;
8665;SDS011;4370;48.916;8.380;2023-08-08T00:13:32;1.97;;;1.67;;
8665;SDS011;4370;48.916;8.380;2023-08-08T00:15:58;1.60;;;1.50;;
8665;SDS011;4370;48.916;8.380;2023-08-08T00:18:24;2.17;;;1.70;;
8665;SDS011;4370;48.916;8.380;2023-08-08T00:20:50;1.63;;;1.40;;
8665;SDS011;4370;48.916;8.380;2023-08-08T00:23:16;1.63;;;1.50;;
8665;SDS011;4370;48.916;8.380;2023-08-08T00:25:41;1.83;;;1.63;;
8665;SDS011;4370;48.916;8.380;2023-08-08T00:28:08;1.80;;;1.50;;
8665;SDS011;4370;48.916;8.380;2023-08-08T00:30:34;2.07;;;1.67;;
8665;SDS011;4370;48.916;8.380;2023-08-08T00:33:00;1.40;;;1.30;;
8665;SDS011;4370;48.916;8.380;2023-08-08T00:35:26;1.77;;;1.40;;
8665;SDS011;4370;48.916;8.380;2023-08-08T00:37:52;1.60;;;1.50;;
8665;SDS011;4370;48.916;8.380;2023-08-08T00:40:18;1.50;;;1.40;;
8665;SDS011;4370;48.916;8.380;2023-08-08T00:42:44;1.90;;;1.60;;
8665;SDS011;4370;48.916;8.380;2023-08-08T00:45:09;2.00;;;1.60;;
8665;SDS011;4370;48.916;8.380;2023-08-08T00:47:35;3.30;;;1.70;;
8665;SDS011;4370;48.916;8.380;2023-08-08T00:50:02;2.37;;;1.80;;
8665;SDS011;4370;48.916;8.380;2023-08-08T00:52:28;1.83;;;1.60;;
8665;SDS011;4370;48.916;8.380;2023-08-08T00:54:54;1.63;;;1.50;;
8665;SDS011;4370;48.916;8.380;2023-08-08T00:57:21;1.57;;;1.47;;
8665;SDS011;4370;48.916;8.380;2023-08-08T00:59:47;1.80;;;1.67;;
8665;SDS011;4370;48.916;8.380;2023-08-08T01:02:13;1.80;;;1.70;;
8665;SDS011;4370;48.916;8.380;2023-08-08T01:04:39;2.03;;;1.83;;
8665;SDS011;4370;48.916;8.380;2023-08-08T01:09:41;2.47;;;1.60;;
8665;SDS011;4370;48.916;8.380;2023-08-08T01:12:10;2.07;;;1.73;;
8665;SDS011;4370;48.916;8.380;2023-08-08T01:14:36;1.80;;;1.70;;
8665;SDS011;4370;48.916;8.380;2023-08-08T01:17:02;1.50;;;1.40;;
8665;SDS011;4370;48.916;8.380;2023-08-08T01:19:30;1.80;;;1.70;;
8665;SDS011;4370;48.916;8.380;2023-08-08T01:22:01;3.03;;;1.70;;
8665;SDS011;4370;48.916;8.380;2023-08-08T01:24:30;2.00;;;1.60;;
8665;SDS011;4370;48.916;8.380;2023-08-08T01:26:58;2.83;;;1.90;;
8665;SDS011;4370;48.916;8.380;2023-08-08T01:29:24;2.27;;;1.60;;
8665;SDS011;4370;48.916;8.380;2023-08-08T01:31:50;2.63;;;1.90;;
8665;SDS011;4370;48.916;8.380;2023-08-08T01:34:16;2.60;;;1.30;;
8665;SDS011;4370;48.916;8.380;2023-08-08T01:39:08;5.00;;;1.80;;
8665;SDS011;4370;48.916;8.380;2023-08-08T01:41:39;1.90;;;1.70;;
8665;SDS011;4370;48.916;8.380;2023-08-08T01:44:05;2.13;;;1.70;;
8665;SDS011;4370;48.916;8.380;2023-08-08T01:46:31;1.70;;;1.53;;
8665;SDS011;4370;48.916;8.380;2023-08-08T01:48:58;2.50;;;1.70;;
8665;SDS011;4370;48.916;8.380;2023-08-08T01:51:24;2.07;;;1.60;;
8665;SDS011;4370;48.916;8.380;2023-08-08T01:54:10;1.97;;;1.67;;
8665;SDS011;4370;48.916;8.380;2023-08-08T01:56:36;3.23;;;1.60;;
8665;SDS011;4370;48.916;8.380;2023-08-08T01:59:02;2.83;;;1.90;;
8665;SDS011;4370;48.916;8.380;2023-08-08T02:01:28;2.37;;;1.80;;
8665;SDS011;4370;48.916;8.380;2023-08-08T02:03:54;2.17;;;1.97;;
8665;SDS011;4370;48.916;8.380;2023-08-08T02:06:20;2.77;;;1.70;;
8665;SDS011;4370;48.916;8.380;2023-08-08T02:08:46;1.73;;;1.63;;
8665;SDS011;4370;48.916;8.380;2023-08-08T02:11:12;1.87;;;1.60;;
8665;SDS011;4370;48.916;8.380;2023-08-08T02:13:38;1.80;;;1.70;;
8665;SDS011;4370;48.916;8.380;2023-08-08T02:16:04;2.00;;;1.70;;
8665;SDS011;4370;48.916;8.380;2023-08-08T02:18:30;2.27;;;1.70;;
8665;SDS011;4370;48.916;8.380;2023-08-08T02:20:56;2.17;;;1.97;;
8665;SDS011;4370;48.916;8.380;2023-08-08T02:23:21;2.37;;;1.93;;
8665;SDS011;4370;48.916;8.380;2023-08-08T02:25:47;2.60;;;1.50;;
8665;SDS011;4370;48.916;8.380;2023-08-08T02:28:13;3.97;;;1.70;;
8665;SDS011;4370;48.916;8.380;2023-08-08T02:30:39;2.00;;;1.80;;
8665;SDS011;4370;48.916;8.380;2023-08-08T02:33:06;2.43;;;1.80;;
8665;SDS011;4370;48.916;8.380;2023-08-08T02:35:32;4.90;;;2.20;;
8665;SDS011;4370;48.916;8.380;2023-08-08T02:37:57;5.00;;;2.30;;
8665;SDS011;4370;48.916;8.380;2023-08-08T02:40:23;1.90;;;1.70;;
8665;SDS011;4370;48.916;8.380;2023-08-08T02:42:51;2.23;;;2.00;;
8665;SDS011;4370;48.916;8.380;2023-08-08T02:45:17;3.17;;;1.90;;
8665;SDS011;4370;48.916;8.380;2023-08-08T02:47:43;3.33;;;1.93;;
8665;SDS011;4370;48.916;8.380;2023-08-08T02:50:09;2.77;;;1.90;;
8665;SDS011;4370;48.916;8.380;2023-08-08T02:52:35;1.80;;;1.70;;
8665;SDS011;4370;48.916;8.380;2023-08-08T02:55:01;1.70;;;1.60;;
8665;SDS011;4370;48.916;8.380;2023-08-08T02:57:27;1.93;;;1.73;;
8665;SDS011;4370;48.916;8.380;2023-08-08T02:59:53;1.87;;;1.70;;
8665;SDS011;4370;48.916;8.380;2023-08-08T03:02:19;2.50;;;1.73;;
8665;SDS011;4370;48.916;8.380;2023-08-08T03:04:45;2.23;;;1.53;;
8665;SDS011;4370;48.916;8.380;2023-08-08T03:07:11;3.40;;;1.70;;
8665;SDS011;4370;48.916;8.380;2023-08-08T03:09:37;1.80;;;1.57;;
8665;SDS011;4370;48.916;8.380;2023-08-08T03:12:03;2.57;;;1.90;;
8665;SDS011;4370;48.916;8.380;2023-08-08T03:14:29;2.10;;;1.90;;
8665;SDS011;4370;48.916;8.380;2023-08-08T03:16:55;2.90;;;2.03;;
8665;SDS011;4370;48.916;8.380;2023-08-08T03:19:21;3.77;;;2.20;;
8665;SDS011;4370;48.916;8.380;2023-08-08T03:21:47;2.33;;;1.87;;
8665;SDS011;4370;48.916;8.380;2023-08-08T03:24:13;2.07;;;1.80;;
8665;SDS011;4370;48.916;8.380;2023-08-08T03:26:39;1.97;;;1.80;;
8665;SDS011;4370;48.916;8.380;2023-08-08T03:29:05;2.07;;;1.87;;
8665;SDS011;4370;48.916;8.380;2023-08-08T03:31:34;2.00;;;1.73;;
8665;SDS011;4370;48.916;8.380;2023-08-08T03:34:00;2.10;;;1.90;;
8665;SDS011;4370;48.916;8.380;2023-08-08T03:36:26;2.23;;;1.80;;
8665;SDS011;4370;48.916;8.380;2023-08-08T03:38:52;2.03;;;1.80;;
8665;SDS011;4370;48.916;8.380;2023-08-08T03:41:18;1.83;;;1.73;;
8665;SDS011;4370;48.916;8.380;2023-08-08T03:43:44;1.70;;;1.60;;
8665;SDS011;4370;48.916;8.380;2023-08-08T03:46:10;2.30;;;1.80;;
8665;SDS011;4370;48.916;8.380;2023-08-08T03:48:37;2.73;;;2.30;;
8665;SDS011;4370;48.916;8.380;2023-08-08T03:51:03;2.60;;;1.80;;
8665;SDS011;4370;48.916;8.380;2023-08-08T03:53:29;1.83;;;1.60;;
8665;SDS011;4370;48.916;8.380;2023-08-08T03:55:55;2.17;;;1.97;;
8665;SDS011;4370;48.916;8.380;2023-08-08T03:58:21;2.00;;;1.80;;
8665;SDS011;4370;48.916;8.380;2023-08-08T04:00:46;2.83;;;1.93;;
8665;SDS011;4370;48.916;8.380;2023-08-08T04:03:13;3.20;;;1.83;;
8665;SDS011;4370;48.916;8.380;2023-08-08T04:05:39;2.10;;;1.90;;
8665;SDS011;4370;48.916;8.380;2023-08-08T04:08:06;1.83;;;1.73;;
8665;SDS011;4370;48.916;8.380;2023-08-08T04:10:32;2.63;;;1.80;;
8665;SDS011;4370;48.916;8.380;2023-08-08T04:12:58;2.10;;;1.90;;
8665;SDS011;4370;48.916;8.380;2023-08-08T04:15:23;2.40;;;1.80;;
8665;SDS011;4370;48.916;8.380;2023-08-08T04:17:49;3.03;;;1.80;;
8665;SDS011;4370;48.916;8.380;2023-08-08T04:20:15;4.80;;;1.77;;
8665;SDS011;4370;48.916;8.380;2023-08-08T04:22:41;3.10;;;1.97;;
8665;SDS011;4370;48.916;8.380;2023-08-08T04:25:07;3.53;;;2.10;;
8665;SDS011;4370;48.916;8.380;2023-08-08T04:27:34;3.20;;;2.03;;
8665;SDS011;4370;48.916;8.380;2023-08-08T04:30:00;2.53;;;1.83;;
8665;SDS011;4370;48.916;8.380;2023-08-08T04:32:25;2.10;;;1.73;;
8665;SDS011;4370;48.916;8.380;2023-08-08T04:34:51;3.03;;;1.67;;
8665;SDS011;4370;48.916;8.380;2023-08-08T04:37:17;2.30;;;1.90;;
8665;SDS011;4370;48.916;8.380;2023-08-08T04:39:43;1.83;;;1.60;;
8665;SDS011;4370;48.916;8.380;2023-08-08T04:42:09;2.27;;;1.77;;
8665;SDS011;4370;48.916;8.380;2023-08-08T04:44:35;1.93;;;1.77;;
8665;SDS011;4370;48.916;8.380;2023-08-08T04:47:01;3.47;;;1.63;;
8665;SDS011;4370;48.916;8.380;2023-08-08T04:49:27;2.50;;;1.50;;
8665;SDS011;4370;48.916;8.380;2023-08-08T04:51:54;1.90;;;1.80;;
8665;SDS011;4370;48.916;8.380;2023-08-08T04:54:20;1.90;;;1.70;;
8665;SDS011;4370;48.916;8.380;2023-08-08T04:56:46;1.90;;;1.70;;
8665;SDS011;4370;48.916;8.380;2023-08-08T04:59:12;1.97;;;1.77;;
8665;SDS011;4370;48.916;8.380;2023-08-08T05:01:37;1.70;;;1.60;;
8665;SDS011;4370;48.916;8.380;2023-08-08T05:04:03;2.53;;;1.80;;
8665;SDS011;4370;48.916;8.380;2023-08-08T05:06:30;5.40;;;1.73;;
8665;SDS011;4370;48.916;8.380;2023-08-08T05:08:56;2.13;;;1.90;;
8665;SDS011;4370;48.916;8.380;2023-08-08T05:11:22;2.13;;;1.53;;
8665;SDS011;4370;48.916;8.380;2023-08-08T05:13:48;1.87;;;1.60;;
8665;SDS011;4370;48.916;8.380;2023-08-08T05:16:14;2.70;;;1.70;;
8665;SDS011;4370;48.916;8.380;2023-08-08T05:18:40;2.77;;;1.80;;
8665;SDS011;4370;48.916;8.380;2023-08-08T05:21:06;2.07;;;1.70;;
8665;SDS011;4370;48.916;8.380;2023-08-08T05:23:32;1.70;;;1.60;;
8665;SDS011;4370;48.916;8.380;2023-08-08T05:25:58;3.30;;;2.20;;
8665;SDS011;4370;48.916;8.380;2023-08-08T05:28:24;2.83;;;1.90;;
8665;SDS011;4370;48.916;8.380;2023-08-08T05:30:50;2.50;;;1.70;;
8665;SDS011;4370;48.916;8.380;2023-08-08T05:33:16;2.83;;;1.80;;
8665;SDS011;4370;48.916;8.380;2023-08-08T05:35:41;5.30;;;1.90;;
8665;SDS011;4370;48.916;8.380;2023-08-08T05:38:07;3.27;;;1.80;;
8665;SDS011;4370;48.916;8.380;2023-08-08T05:40:34;2.60;;;1.90;;
8665;SDS011;4370;48.916;8.380;2023-08-08T05:43:01;3.93;;;1.60;;
8665;SDS011;4370;48.916;8.380;2023-08-08T05:45:27;2.77;;;1.70;;
8665;SDS011;4370;48.916;8.380;2023-08-08T05:47:53;1.70;;;1.60;;
8665;SDS011;4370;48.916;8.380;2023-08-08T05:50:20;2.27;;;1.70;;
8665;SDS011;4370;48.916;8.380;2023-08-08T05:52:46;3.90;;;1.70;;
8665;SDS011;4370;48.916;8.380;2023-08-08T05:55:12;2.60;;;1.70;;
8665;SDS011;4370;48.916;8.380;2023-08-08T05:57:38;2.33;;;1.87;;
8665;SDS011;4370;48.916;8.380;2023-08-08T06:00:04;2.47;;;1.67;;
8665;SDS011;4370;48.916;8.380;2023-08-08T06:02:33;2.33;;;1.60;;
8665;SDS011;4370;48.916;8.380;2023-08-08T06:04:59;1.77;;;1.60;;
8665;SDS011;4370;48.916;8.380;2023-08-08T06:07:24;2.87;;;1.73;;
8665;SDS011;4370;48.916;8.380;2023-08-08T06:09:50;3.03;;;1.50;;
8665;SDS011;4370;48.916;8.380;2023-08-08T06:12:16;2.20;;;1.63;;
8665;SDS011;4370;48.916;8.380;2023-08-08T06:14:42;1.40;;;1.30;;
8665;SDS011;4370;48.916;8.380;2023-08-08T06:17:07;3.63;;;1.80;;
8665;SDS011;4370;48.916;8.380;2023-08-08T06:19:33;2.03;;;1.30;;
8665;SDS011;4370;48.916;8.380;2023-08-08T06:21:58;3.13;;;1.55;;
8665;SDS011;4370;48.916;8.380;2023-08-08T06:24:24;2.80;;;1.77;;
8665;SDS011;4370;48.916;8.380;2023-08-08T06:26:49;1.70;;;1.40;;
8665;SDS011;4370;48.916;8.380;2023-08-08T06:29:15;3.45;;;1.40;;
8665;SDS011;4370;48.916;8.380;2023-08-08T06:31:41;1.65;;;1.38;;
8665;SDS011;4370;48.916;8.380;2023-08-08T06:34:07;1.67;;;1.30;;
8665;SDS011;4370;48.916;8.380;2023-08-08T06:36:33;3.03;;;1.40;;
8665;SDS011;4370;48.916;8.380;2023-08-08T06:38:59;1.98;;;1.40;;
8665;SDS011;4370;48.916;8.380;2023-08-08T06:41:24;2.13;;;1.30;;
8665;SDS011;4370;48.916;8.380;2023-08-08T06:43:50;3.38;;;1.50;;
8665;SDS011;4370;48.916;8.380;2023-08-08T06:46:16;1.42;;;1.33;;
8665;SDS011;4370;48.916;8.380;2023-08-08T06:48:42;2.53;;;1.75;;
8665;SDS011;4370;48.916;8.380;2023-08-08T06:51:09;3.08;;;1.50;;
8665;SDS011;4370;48.916;8.380;2023-08-08T06:53:35;2.35;;;1.38;;
8665;SDS011;4370;48.916;8.380;2023-08-08T06:56:00;1.95;;;1.50;;
8665;SDS011;4370;48.916;8.380;2023-08-08T06:58:26;3.90;;;1.23;;
8665;SDS011;4370;48.916;8.380;2023-08-08T07:00:51;1.77;;;1.30;;
8665;SDS011;4370;48.916;8.380;2023-08-08T07:03:17;1.40;;;1.30;;
8665;SDS011;4370;48.916;8.380;2023-08-08T07:05:42;1.85;;;1.40;;
8665;SDS011;4370;48.916;8.380;2023-08-08T07:08:08;4.40;;;1.55;;
8665;SDS011;4370;48.916;8.380;2023-08-08T07:10:35;2.35;;;1.50;;
8665;SDS011;4370;48.916;8.380;2023-08-08T07:13:01;4.53;;;1.45;;
8665;SDS011;4370;48.916;8.380;2023-08-08T07:15:26;1.65;;;1.38;;
8665;SDS011;4370;48.916;8.380;2023-08-08T07:17:52;1.63;;;1.40;;
8665;SDS011;4370;48.916;8.380;2023-08-08T07:20:18;1.60;;;1.30;;
8665;SDS011;4370;48.916;8.380;2023-08-08T07:22:44;2.85;;;1.60;;
8665;SDS011;4370;48.916;8.380;2023-08-08T07:25:10;1.30;;;1.20;;
8665;SDS011;4370;48.916;8.380;2023-08-08T07:27:36;2.88;;;1.20;;
8665;SDS011;4370;48.916;8.380;2023-08-08T07:30:02;2.28;;;1.48;;
8665;SDS011;4370;48.916;8.380;2023-08-08T07:32:29;1.70;;;1.20;;
8665;SDS011;4370;48.916;8.380;2023-08-08T07:34:55;1.60;;;1.50;;
8665;SDS011;4370;48.916;8.380;2023-08-08T07:37:20;5.05;;;1.75;;
8665;SDS011;4370;48.916;8.380;2023-08-08T07:39:46;3.35;;;1.75;;
8665;SDS011;4370;48.916;8.380;2023-08-08T07:42:15;2.42;;;1.60;;
8665;SDS011;4370;48.916;8.380;2023-08-08T07:44:41;3.50;;;1.55;;
8665;SDS011;4370;48.916;8.380;2023-08-08T07:47:06;1.73;;;1.30;;
8665;SDS011;4370;48.916;8.380;2023-08-08T07:49:32;2.35;;;1.45;;
8665;SDS011;4370;48.916;8.380;2023-08-08T07:51:57;2.33;;;1.25;;
8665;SDS011;4370;48.916;8.380;2023-08-08T07:54:23;1.73;;;1.30;;
8665;SDS011;4370;48.916;8.380;2023-08-08T07:56:48;1.73;;;1.20;;
8665;SDS011;4370;48.916;8.380;2023-08-08T07:59:14;1.98;;;1.45;;
8665;SDS011;4370;48.916;8.380;2023-08-08T08:01:39;3.53;;;1.40;;
8665;SDS011;4370;48.916;8.380;2023-08-08T08:04:05;3.35;;;1.40;;
8665;SDS011;4370;48.916;8.380;2023-08-08T08:06:31;1.95;;;1.30;;
8665;SDS011;4370;48.916;8.380;2023-08-08T08:08:56;1.42;;;1.30;;
8665;SDS011;4370;48.916;8.380;2023-08-08T08:11:22;1.40;;;1.30;;
8665;SDS011;4370;48.916;8.380;2023-08-08T08:13:47;2.45;;;1.50;;
8665;SDS011;4370;48.916;8.380;2023-08-08T08:16:13;3.22;;;1.33;;
8665;SDS011;4370;48.916;8.380;2023-08-08T08:18:39;2.85;;;1.48;;
8665;SDS011;4370;48.916;8.380;2023-08-08T08:21:04;2.05;;;1.42;;
8665;SDS011;4370;48.916;8.380;2023-08-08T08:23:30;3.03;;;1.45;;
8665;SDS011;4370;48.916;8.380;2023-08-08T08:25:57;1.83;;;1.40;;
8665;SDS011;4370;48.916;8.380;2023-08-08T08:28:23;3.45;;;1.50;;
8665;SDS011;4370;48.916;8.380;2023-08-08T08:30:48;2.85;;;1.40;;
8665;SDS011;4370;48.916;8.380;2023-08-08T08:33:14;2.58;;;1.30;;
8665;SDS011;4370;48.916;8.380;2023-08-08T08:35:40;3.53;;;1.70;;
8665;SDS011;4370;48.916;8.380;2023-08-08T08:38:05;1.83;;;1.50;;
8665;SDS011;4370;48.916;8.380;2023-08-08T08:40:36;2.60;;;1.60;;
8665;SDS011;4370;48.916;8.380;2023-08-08T08:43:04;2.88;;;1.60;;
8665;SDS011;4370;48.916;8.380;2023-08-08T08:45:31;3.93;;;1.40;;
8665;SDS011;4370;48.916;8.380;2023-08-08T08:48:01;2.20;;;1.50;;
8665;SDS011;4370;48.916;8.380;2023-08-08T08:50:28;3.10;;;1.53;;
8665;SDS011;4370;48.916;8.380;2023-08-08T08:52:57;2.33;;;1.40;;
8665;SDS011;4370;48.916;8.380;2023-08-08T08:55:25;3.27;;;1.60;;
8665;SDS011;4370;48.916;8.380;2023-08-08T08:57:51;3.30;;;1.70;;
8665;SDS011;4370;48.916;8.380;2023-08-08T09:00:17;1.30;;;1.20;;
8665;SDS011;4370;48.916;8.380;2023-08-08T09:02:43;2.00;;;1.30;;
8665;SDS011;4370;48.916;8.380;2023-08-08T09:05:10;1.33;;;1.23;;
8665;SDS011;4370;48.916;8.380;2023-08-08T09:07:37;2.10;;;1.30;;
8665;SDS011;4370;48.916;8.380;2023-08-08T09:10:02;3.43;;;1.37;;
8665;SDS011;4370;48.916;8.380;2023-08-08T09:12:29;2.83;;;1.73;;
8665;SDS011;4370;48.916;8.380;2023-08-08T09:14:58;2.27;;;1.40;;
8665;SDS011;4370;48.916;8.380;2023-08-08T09:17:25;2.10;;;1.30;;
8665;SDS011;4370;48.916;8.380;2023-08-08T09:19:53;2.23;;;1.60;;
8665;SDS011;4370;48.916;8.380;2023-08-08T09:22:20;4.50;;;1.47;;
8665;SDS011;4370;48.916;8.380;2023-08-08T09:24:45;1.50;;;1.30;;
8665;SDS011;4370;48.916;8.380;2023-08-08T09:27:11;2.87;;;1.40;;
8665;SDS011;4370;48.916;8.380;2023-08-08T09:29:38;2.93;;;1.50;;
8665;SDS011;4370;48.916;8.380;2023-08-08T09:32:06;1.73;;;1.40;;
8665;SDS011;4370;48.916;8.380;2023-08-08T09:34:33;3.07;;;1.63;;
8665;SDS011;4370;48.916;8.380;2023-08-08T09:36:58;3.57;;;1.67;;
8665;SDS011;4370;48.916;8.380;2023-08-08T09:39:25;4.80;;;1.43;;
8665;SDS011;4370;48.916;8.380;2023-08-08T09:41:51;4.97;;;1.87;;
8665;SDS011;4370;48.916;8.380;2023-08-08T09:44:16;2.90;;;1.40;;
8665;SDS011;4370;48.916;8.380;2023-08-08T09:46:43;1.93;;;1.43;;
8665;SDS011;4370;48.916;8.380;2023-08-08T09:49:09;4.03;;;1.60;;
8665;SDS011;4370;48.916;8.380;2023-08-08T09:51:37;2.17;;;1.40;;
8665;SDS011;4370;48.916;8.380;2023-08-08T09:54:04;2.63;;;1.27;;
8665;SDS011;4370;48.916;8.380;2023-08-08T09:56:33;3.07;;;1.20;;
8665;SDS011;4370;48.916;8.380;2023-08-08T09:58:59;3.47;;;1.50;;
8665;SDS011;4370;48.916;8.380;2023-08-08T10:01:26;1.60;;;1.40;;
8665;SDS011;4370;48.916;8.380;2023-08-08T10:03:52;3.13;;;1.90;;
8665;SDS011;4370;48.916;8.380;2023-08-08T10:06:17;2.70;;;1.60;;
8665;SDS011;4370;48.916;8.380;2023-08-08T10:08:44;2.43;;;1.30;;
8665;SDS011;4370;48.916;8.380;2023-08-08T10:11:10;3.30;;;1.60;;
8665;SDS011;4370;48.916;8.380;2023-08-08T10:13:37;3.00;;;1.77;;
8665;SDS011;4370;48.916;8.380;2023-08-08T10:16:04;4.20;;;1.80;;
8665;SDS011;4370;48.916;8.380;2023-08-08T10:18:33;3.07;;;1.80;;
8665;SDS011;4370;48.916;8.380;2023-08-08T10:20:59;2.40;;;1.60;;
8665;SDS011;4370;48.916;8.380;2023-08-08T10:23:24;3.80;;;1.57;;
8665;SDS011;4370;48.916;8.380;2023-08-08T10:25:51;2.50;;;1.60;;
8665;SDS011;4370;48.916;8.380;2023-08-08T10:28:20;2.63;;;1.43;;
8665;SDS011;4370;48.916;8.380;2023-08-08T10:33:24;4.00;;;1.47;;
8665;SDS011;4370;48.916;8.380;2023-08-08T10:36:01;3.87;;;1.50;;
8665;SDS011;4370;48.916;8.380;2023-08-08T10:38:41;3.57;;;1.53;;
8665;SDS011;4370;48.916;8.380;2023-08-08T10:41:09;1.80;;;1.57;;
8665;SDS011;4370;48.916;8.380;2023-08-08T10:43:53;3.97;;;1.57;;
8665;SDS011;4370;48.916;8.380;2023-08-08T10:46:25;2.17;;;1.50;;
8665;SDS011;4370;48.916;8.380;2023-08-08T10:48:52;2.77;;;1.37;;
8665;SDS011;4370;48.916;8.380;2023-08-08T10:51:19;1.80;;;1.30;;
8665;SDS011;4370;48.916;8.380;2023-08-08T10:53:44;3.20;;;1.40;;
8665;SDS011;4370;48.916;8.380;2023-08-08T10:56:12;1.93;;;1.20;;
8665;SDS011;4370;48.916;8.380;2023-08-08T10:58:39;1.77;;;1.30;;
8665;SDS011;4370;48.916;8.380;2023-08-08T11:01:06;5.87;;;1.40;;
8665;SDS011;4370;48.916;8.380;2023-08-08T11:03:36;1.93;;;1.37;;
8665;SDS011;4370;48.916;8.380;2023-08-08T11:06:04;1.30;;;1.20;;
8665;SDS011;4370;48.916;8.380;2023-08-08T11:08:33;5.57;;;1.60;;
8665;SDS011;4370;48.916;8.380;2023-08-08T11:11:01;2.80;;;1.00;;
8665;SDS011;4370;48.916;8.380;2023-08-08T11:13:28;2.23;;;1.27;;
8665;SDS011;4370;48.916;8.380;2023-08-08T11:15:54;3.60;;;1.07;;
8665;SDS011;4370;48.916;8.380;2023-08-08T11:18:20;4.07;;;1.23;;
8665;SDS011;4370;48.916;8.380;2023-08-08T11:20:46;2.10;;;1.20;;
8665;SDS011;4370;48.916;8.380;2023-08-08T11:23:12;3.63;;;1.33;;
8665;SDS011;4370;48.916;8.380;2023-08-08T11:25:42;1.20;;;1.10;;
8665;SDS011;4370;48.916;8.380;2023-08-08T11:28:08;2.53;;;1.40;;
8665;SDS011;4370;48.916;8.380;2023-08-08T11:30:37;2.10;;;1.50;;
8665;SDS011;4370;48.916;8.380;2023-08-08T11:33:04;2.07;;;1.53;;
8665;SDS011;4370;48.916;8.380;2023-08-08T11:35:30;2.23;;;1.40;;
8665;SDS011;4370;48.916;8.380;2023-08-08T11:37:56;2.13;;;1.30;;
8665;SDS011;4370;48.916;8.380;2023-08-08T11:40:23;2.27;;;1.37;;
8665;SDS011;4370;48.916;8.380;2023-08-08T11:42:51;2.17;;;1.20;;
8665;SDS011;4370;48.916;8.380;2023-08-08T11:45:18;7.20;;;1.20;;
8665;SDS011;4370;48.916;8.380;2023-08-08T11:47:47;3.03;;;1.30;;
8665;SDS011;4370;48.916;8.380;2023-08-08T11:50:14;1.90;;;1.30;;
8665;SDS011;4370;48.916;8.380;2023-08-08T11:52:40;4.30;;;1.40;;
8665;SDS011;4370;48.916;8.380;2023-08-08T11:55:08;2.83;;;1.23;;
8665;SDS011;4370;48.916;8.380;2023-08-08T11:57:37;3.40;;;1.50;;
8665;SDS011;4370;48.916;8.380;2023-08-08T12:00:05;3.53;;;1.40;;
8665;SDS011;4370;48.916;8.380;2023-08-08T12:02:32;2.75;;;1.35;;
8665;SDS011;4370;48.916;8.380;2023-08-08T12:05:08;2.63;;;1.40;;
8665;SDS011;4370;48.916;8.380;2023-08-08T12:07:36;1.57;;;1.23;;
8665;SDS011;4370;48.916;8.380;2023-08-08T12:10:05;3.03;;;1.50;;
8665;SDS011;4370;48.916;8.380;2023-08-08T12:12:37;2.53;;;1.50;;
8665;SDS011;4370;48.916;8.380;2023-08-08T12:15:05;3.57;;;1.47;;
8665;SDS011;4370;48.916;8.380;2023-08-08T12:17:31;1.77;;;1.40;;
8665;SDS011;4370;48.916;8.380;2023-08-08T12:20:00;3.00;;;1.13;;
8665;SDS011;4370;48.916;8.380;2023-08-08T12:22:26;1.53;;;1.20;;
8665;SDS011;4370;48.916;8.380;2023-08-08T12:24:52;2.37;;;1.30;;
8665;SDS011;4370;48.916;8.380;2023-08-08T12:27:17;2.53;;;1.40;;
8665;SDS011;4370;48.916;8.380;2023-08-08T12:29:43;4.00;;;1.50;;
8665;SDS011;4370;48.916;8.380;2023-08-08T12:32:09;2.87;;;1.33;;
8665;SDS011;4370;48.916;8.380;2023-08-08T12:34:35;1.40;;;1.30;;
8665;SDS011;4370;48.916;8.380;2023-08-08T12:37:00;4.37;;;1.80;;
8665;SDS011;4370;48.916;8.380;2023-08-08T12:39:26;2.90;;;1.20;;
8665;SDS011;4370;48.916;8.380;2023-08-08T12:41:52;2.13;;;1.10;;
8665;SDS011;4370;48.916;8.380;2023-08-08T12:44:17;2.13;;;1.30;;
8665;SDS011;4370;48.916;8.380;2023-08-08T12:46:43;2.97;;;1.40;;
8665;SDS011;4370;48.916;8.380;2023-08-08T12:49:08;1.57;;;1.30;;
8665;SDS011;4370;48.916;8.380;2023-08-08T12:51:34;4.10;;;1.50;;
8665;SDS011;4370;48.916;8.380;2023-08-08T12:53:59;3.43;;;1.70;;
8665;SDS011;4370;48.916;8.380;2023-08-08T12:56:25;3.53;;;1.57;;
8665;SDS011;4370;48.916;8.380;2023-08-08T12:58:50;3.20;;;1.20;;
8665;SDS011;4370;48.916;8.380;2023-08-08T13:01:16;2.20;;;1.50;;
8665;SDS011;4370;48.916;8.380;2023-08-08T13:03:42;2.07;;;1.27;;
8665;SDS011;4370;48.916;8.380;2023-08-08T13:06:07;1.30;;;1.20;;
8665;SDS011;4370;48.916;8.380;2023-08-08T13:08:36;2.57;;;1.30;;
8665;SDS011;4370;48.916;8.380;2023-08-08T13:11:02;3.30;;;1.53;;
8665;SDS011;4370;48.916;8.380;2023-08-08T13:13:27;3.13;;;1.47;;
8665;SDS011;4370;48.916;8.380;2023-08-08T13:15:53;2.60;;;1.37;;
8665;SDS011;4370;48.916;8.380;2023-08-08T13:18:18;2.43;;;1.60;;
8665;SDS011;4370;48.916;8.380;2023-08-08T13:20:44;1.47;;;1.20;;
8665;SDS011;4370;48.916;8.380;2023-08-08T13:23:10;2.13;;;1.40;;
8665;SDS011;4370;48.916;8.380;2023-08-08T13:25:35;1.93;;;1.10;;
8665;SDS011;4370;48.916;8.380;2023-08-08T13:28:02;2.20;;;1.30;;
8665;SDS011;4370;48.916;8.380;2023-08-08T13:30:28;2.77;;;1.47;;
8665;SDS011;4370;48.916;8.380;2023-08-08T13:32:56;3.15;;;1.48;;
8665;SDS011;4370;48.916;8.380;2023-08-08T13:35:21;2.08;;;1.40;;
8665;SDS011;4370;48.916;8.380;2023-08-08T13:37:47;2.85;;;1.48;;
8665;SDS011;4370;48.916;8.380;2023-08-08T13:40:17;1.77;;;1.25;;
8665;SDS011;4370;48.916;8.380;2023-08-08T13:42:43;1.40;;;1.23;;
8665;SDS011;4370;48.916;8.380;2023-08-08T13:45:12;1.85;;;1.25;;
8665;SDS011;4370;48.916;8.380;2023-08-08T13:47:38;2.55;;;1.30;;
8665;SDS011;4370;48.916;8.380;2023-08-08T13:50:04;2.10;;;1.40;;
8665;SDS011;4370;48.916;8.380;2023-08-08T13:52:30;2.33;;;1.20;;
8665;SDS011;4370;48.916;8.380;2023-08-08T13:54:57;1.75;;;1.20;;
8665;SDS011;4370;48.916;8.380;2023-08-08T13:57:23;3.03;;;1.38;;
8665;SDS011;4370;48.916;8.380;2023-08-08T13:59:49;2.10;;;1.40;;
8665;SDS011;4370;48.916;8.380;2023-08-08T14:02:14;3.43;;;1.30;;
8665;SDS011;4370;48.916;8.380;2023-08-08T14:04:43;1.27;;;1.00;;
8665;SDS011;4370;48.916;8.380;2023-08-08T14:07:11;3.17;;;1.27;;
8665;SDS011;4370;48.916;8.380;2023-08-08T14:09:36;1.83;;;1.20;;
8665;SDS011;4370;48.916;8.380;2023-08-08T14:12:02;1.97;;;1.27;;
8665;SDS011;4370;48.916;8.380;2023-08-08T14:14:28;2.20;;;1.30;;
8665;SDS011;4370;48.916;8.380;2023-08-08T14:16:54;2.00;;;1.40;;
8665;SDS011;4370;48.916;8.380;2023-08-08T14:19:19;4.13;;;1.43;;
8665;SDS011;4370;48.916;8.380;2023-08-08T14:21:45;3.40;;;1.27;;
8665;SDS011;4370;48.916;8.380;2023-08-08T14:24:10;3.77;;;1.33;;
8665;SDS011;4370;48.916;8.380;2023-08-08T14:26:36;2.43;;;1.33;;
8665;SDS011;4370;48.916;8.380;2023-08-08T14:29:02;1.40;;;1.13;;
8665;SDS011;4370;48.916;8.380;2023-08-08T14:31:28;2.03;;;1.20;;
8665;SDS011;4370;48.916;8.380;2023-08-08T14:33:53;2.17;;;1.17;;
8665;SDS011;4370;48.916;8.380;2023-08-08T14:36:19;2.60;;;1.20;;
8665;SDS011;4370;48.916;8.380;2023-08-08T14:38:45;2.87;;;1.33;;
8665;SDS011;4370;48.916;8.380;2023-08-08T14:41:10;2.40;;;1.23;;
8665;SDS011;4370;48.916;8.380;2023-08-08T14:43:36;1.57;;;1.23;;
8665;SDS011;4370;48.916;8.380;2023-08-08T14:46:01;5.17;;;1.40;;
8665;SDS011;4370;48.916;8.380;2023-08-08T14:48:27;2.20;;;1.20;;
8665;SDS011;4370;48.916;8.380;2023-08-08T14:50:52;1.93;;;1.30;;
8665;SDS011;4370;48.916;8.380;2023-08-08T14:53:18;1.83;;;1.33;;
8665;SDS011;4370;48.916;8.380;2023-08-08T14:55:44;2.20;;;1.33;;
8665;SDS011;4370;48.916;8.380;2023-08-08T14:58:10;1.30;;;1.20;;
8665;SDS011;4370;48.916;8.380;2023-08-08T15:00:36;4.63;;;1.50;;
8665;SDS011;4370;48.916;8.380;2023-08-08T15:03:01;2.77;;;1.40;;
8665;SDS011;4370;48.916;8.380;2023-08-08T15:05:27;2.80;;;1.50;;
8665;SDS011;4370;48.916;8.380;2023-08-08T15:07:52;1.57;;;1.43;;
8665;SDS011;4370;48.916;8.380;2023-08-08T15:10:18;2.50;;;1.43;;
8665;SDS011;4370;48.916;8.380;2023-08-08T15:12:44;1.50;;;1.40;;
8665;SDS011;4370;48.916;8.380;2023-08-08T15:15:10;4.20;;;1.67;;
8665;SDS011;4370;48.916;8.380;2023-08-08T15:17:36;1.87;;;1.40;;